WetterOnline ( https://www.wetteronline.de )

Wetter aktuell Wünschendorf

Aktuelles Wetter: Gera/Leumnitz (311m)

6-stündlich | Neueste Meldungen
Ortszeit Temperatur Wetter
Sa, 13.04. 2:00 11.7° C wolkig
Fr, 12.04. 20:00 18.1° C wolkig
Fr, 12.04. 14:00 19.0° C wolkig
Fr, 12.04. 8:00 8.5° C bedeckt
Fr, 12.04. 2:00 10.8° C bedeckt
Do, 11.04. 20:00 14.9° C bedeckt
Do, 11.04. 14:00 16.3° C leicht bewölkt
Do, 11.04. 8:00 5.4° C wolkenlos
Ortszeit Temperatur Wetter
Sa, 13.04. 5:00 10.0° C bedeckt
Sa, 13.04. 4:50 10.0° C bedeckt
Sa, 13.04. 4:40 10.1° C bedeckt
Sa, 13.04. 4:30 10.5° C wolkig
Sa, 13.04. 4:20 10.5° C wolkig
Sa, 13.04. 4:10 10.6° C bedeckt
Sa, 13.04. 4:00 10.9° C wolkig
Sa, 13.04. 3:30 10.6° C wolkig
Sa, 13.04. 3:00 11.7° C wolkig
Sa, 13.04. 2:30 12.0° C wolkig
Sa, 13.04. 2:00 11.7° C wolkig
Ortszeit Relative Feuchte Sichtweite
Sa, 13.04. 2:00 82% 60 km
Fr, 12.04. 20:00 53% 65 km
Fr, 12.04. 14:00 46% 45 km
Fr, 12.04. 8:00 78% 45 km
Fr, 12.04. 2:00 67% 50 km
Do, 11.04. 20:00 48% 60 km
Do, 11.04. 14:00 41% >70 km
Do, 11.04. 8:00 79% 40 km
Ortszeit Relative Feuchte Sichtweite
Sa, 13.04. 5:00 88% 60 km
Sa, 13.04. 4:50 88% -
Sa, 13.04. 4:40 88% -
Sa, 13.04. 4:30 86% 55 km
Sa, 13.04. 4:20 86% -
Sa, 13.04. 4:10 86% -
Sa, 13.04. 4:00 85% 55 km
Sa, 13.04. 3:30 85% 60 km
Sa, 13.04. 3:00 82% 60 km
Sa, 13.04. 2:30 80% >70 km
Sa, 13.04. 2:00 82% 60 km
Ortszeit Niederschlagsmenge Niederschlagsart
Sa, 13.04. 2:00 0.0 l/m2 in 6 Std. -
Fr, 12.04. 20:00 0.0 l/m2 in 12 Std. -
Fr, 12.04. 14:00 0.0 l/m2 in 6 Std. -
Fr, 12.04. 8:00 0.0 l/m2 in 12 Std. -
Fr, 12.04. 2:00 0.0 l/m2 in 6 Std. -
Do, 11.04. 20:00 0.0 l/m2 in 12 Std. -
Do, 11.04. 14:00 0.0 l/m2 in 6 Std. -
Do, 11.04. 8:00 0.0 l/m2 in 12 Std. -
Ortszeit Niederschlagsmenge Niederschlagsart
Sa, 13.04. 5:00 0.0 l/m2 in 1 Std. -
Sa, 13.04. 4:50 keine Meldung -
Sa, 13.04. 4:40 keine Meldung -
Sa, 13.04. 4:30 0.0 l/m2 in 30 Min -
Sa, 13.04. 4:20 keine Meldung -
Sa, 13.04. 4:10 keine Meldung -
Sa, 13.04. 4:00 0.0 l/m2 in 1 Std. -
Sa, 13.04. 3:30 0.0 l/m2 in 30 Min -
Sa, 13.04. 3:00 0.0 l/m2 in 1 Std. -
Sa, 13.04. 2:30 0.0 l/m2 in 30 Min -
Sa, 13.04. 2:00 0.0 l/m2 in 1 Std. -
Ortszeit Stärke Spitze Richtung
km/h Bft. km/h Grad Sektor
Sa, 13.04. 2:00 9 2 28 220° SW
Fr, 12.04. 20:00 9 2 35 320° NW
Fr, 12.04. 14:00 18 3 32 210° SW
Fr, 12.04. 8:00 11 2 14 170° S
Fr, 12.04. 2:00 9 2 15 190° S
Do, 11.04. 20:00 7 2 29 340° N
Do, 11.04. 14:00 19 3 33 270° W
Do, 11.04. 8:00 11 2 18 180° S
Ortszeit Stärke Spitze Richtung
km/h Bft. km/h Grad Sektor
Sa, 13.04. 5:00 11 2 13 200° S
Sa, 13.04. 4:50 11 2 - 200° S
Sa, 13.04. 4:40 11 2 - 190° S
Sa, 13.04. 4:30 9 2 11 180° S
Sa, 13.04. 4:20 9 2 - 180° S
Sa, 13.04. 4:10 7 2 - 170° S
Sa, 13.04. 4:00 9 2 15 180° S
Sa, 13.04. 3:30 7 2 14 220° SW
Sa, 13.04. 3:00 9 2 19 230° SW
Sa, 13.04. 2:30 9 2 19 230° SW
Sa, 13.04. 2:00 9 2 17 220° SW
Ortszeit Untergrenze Bedeckung Gattung
total tief tief mittel hoch
Sa, 13.04. 2:00 8700 m 8/8 0/8 - - -
Fr, 12.04. 20:00 6600 m 8/8 2/8 - - -
Fr, 12.04. 14:00 1800 m 7/8 2/8 - - -
Fr, 12.04. 8:00 6600 m 8/8 8/8 - - -
Fr, 12.04. 2:00 2400 m 8/8 8/8 - - -
Do, 11.04. 20:00 3000 m 8/8 8/8 - - -
Do, 11.04. 14:00 3900 m 7/8 1/8 - - -
Do, 11.04. 8:00 - 0/8 0/8 - - -
Ortszeit Bedeckungsgrad in Achtel und Wolkenuntergrenze
Sa, 13.04. 5:00 7(6300m) 8(6900m) 8(7800m)
Sa, 13.04. 4:50 7(6300m) 8(6900m) 8(7800m)
Sa, 13.04. 4:40 8
Sa, 13.04. 4:30 8(7500m) 8(9000m)
Sa, 13.04. 4:20 8(7500m) 8(9000m)
Sa, 13.04. 4:10 8
Sa, 13.04. 4:00 8(7500m) 8(8400m) 8(9000m)
Sa, 13.04. 3:30 8(8100m) 8(9000m)
Sa, 13.04. 3:00 3(8400m) 8(9000m) 8(9000m)
Sa, 13.04. 2:30 5(8400m) 7(9000m) 8(9000m)
Sa, 13.04. 2:00 8(8700m) 8(9000m) 8(10500m)
Ortszeit Luftdruck NN (hPa) Tendenz (hPa in 3 Std.)
Sa, 13.04. 2:00 1029 - 0,2
Fr, 12.04. 20:00 1028 - 0,7
Fr, 12.04. 14:00 1030 - 1,9
Fr, 12.04. 8:00 1033 - 0,3
Fr, 12.04. 2:00 1034 0,0
Do, 11.04. 20:00 1032 + 0,6
Do, 11.04. 14:00 1033 - 0,3
Do, 11.04. 8:00 1034 + 1,0
Ortszeit Luftdruck NN (hPa) Tendenz (hPa in 3 Std.)
Sa, 13.04. 5:00 1029 - 0,3
Sa, 13.04. 4:50 1029 keine Meldung
Sa, 13.04. 4:40 1029 keine Meldung
Sa, 13.04. 4:30 1029 - 0,3
Sa, 13.04. 4:20 1029 keine Meldung
Sa, 13.04. 4:10 1029 keine Meldung
Sa, 13.04. 4:00 1029 - 0,3
Sa, 13.04. 3:30 1029 - 0,2
Sa, 13.04. 3:00 1029 - 0,1
Sa, 13.04. 2:30 1029 - 0,1
Sa, 13.04. 2:00 1029 - 0,2
Ortszeit Schneehöhe (cm)
Sa, 13.04. 2:00 0
Fr, 12.04. 20:00 0
Fr, 12.04. 14:00 0
Fr, 12.04. 8:00 0
Fr, 12.04. 2:00 0
Do, 11.04. 20:00 0
Do, 11.04. 14:00 0
Do, 11.04. 8:00 0
Ortszeit Schneehöhe (cm)
Sa, 13.04. 5:00 0
Sa, 13.04. 4:50 0
Sa, 13.04. 4:40 -
Sa, 13.04. 4:30 0
Sa, 13.04. 4:20 0
Sa, 13.04. 4:10 -
Sa, 13.04. 4:00 0
Sa, 13.04. 3:30 0
Sa, 13.04. 3:00 0
Sa, 13.04. 2:30 0
Sa, 13.04. 2:00 0
Link zu dieser Seite / Seite empfehlen

Das Wetter in ...